Time,TemperatureF,DewpointF,PressureIn,WindDirection,WindDirectionDegrees,WindSpeedMPH,WindSpeedGustMPH,Humidity,HourlyPrecipIn,Conditions,Clouds,dailyrainin,SoftwareType,DateUTC
2013-08-05 00:02:00,80.0,75.0,30.03,West,271,0.0,0.0,86,0.00,,,0.03,,2013-08-05 04:02:00,
2013-08-05 00:12:00,79.0,74.0,30.03,West,271,0.0,0.0,86,0.00,,,0.03,,2013-08-05 04:12:00,
2013-08-05 00:22:00,79.0,74.0,30.04,West,271,0.0,0.0,86,0.00,,,0.03,,2013-08-05 04:22:00,
2013-08-05 00:32:00,79.0,74.0,30.04,West,271,0.0,0.0,86,0.00,,,0.03,,2013-08-05 04:32:00,
2013-08-05 00:43:00,79.0,74.0,30.04,West,271,0.0,0.0,86,0.00,,,0.03,,2013-08-05 04:43:00,
2013-08-05 00:52:00,79.0,74.0,30.04,West,271,0.0,0.0,86,0.00,,,0.03,,2013-08-05 04:52:00,
2013-08-05 01:02:00,79.0,74.0,30.03,West,271,0.0,0.0,86,0.00,,,0.03,,2013-08-05 05:02:00,
2013-08-05 01:12:00,79.0,74.0,30.03,West,271,0.0,0.0,86,0.00,,,0.03,,2013-08-05 05:12:00,
2013-08-05 01:22:00,79.0,74.0,30.03,West,271,0.0,0.0,86,0.00,,,0.03,,2013-08-05 05:22:00,
2013-08-05 01:32:00,79.0,74.0,30.03,West,271,0.0,0.0,86,0.00,,,0.03,,2013-08-05 05:32:00,
2013-08-05 01:43:00,78.0,73.0,30.02,West,271,0.0,0.0,86,0.00,,,0.03,,2013-08-05 05:43:00,
2013-08-05 01:53:00,78.0,73.0,30.02,West,271,0.0,0.0,86,0.00,,,0.03,,2013-08-05 05:53:00,
2013-08-05 02:02:00,78.0,73.0,30.02,West,271,0.0,0.0,86,0.00,,,0.03,,2013-08-05 06:02:00,
2013-08-05 02:12:00,78.0,73.0,30.02,West,271,0.0,0.0,86,0.00,,,0.03,,2013-08-05 06:12:00,
2013-08-05 02:22:00,78.0,73.0,30.01,West,271,0.0,0.0,86,0.00,,,0.03,,2013-08-05 06:22:00,
2013-08-05 02:32:00,78.0,73.0,30.01,West,271,0.0,0.0,86,0.00,,,0.03,,2013-08-05 06:32:00,
2013-08-05 02:43:00,78.0,73.0,30.01,West,271,0.0,0.0,86,0.00,,,0.03,,2013-08-05 06:43:00,
2013-08-05 02:52:00,78.0,73.0,30.01,West,271,0.0,0.0,86,0.00,,,0.03,,2013-08-05 06:52:00,
2013-08-05 03:02:00,78.0,73.0,30.00,West,271,0.0,0.0,86,0.00,,,0.03,,2013-08-05 07:02:00,
2013-08-05 03:12:00,77.0,72.0,30.00,West,271,0.0,0.0,85,0.00,,,0.03,,2013-08-05 07:12:00,
2013-08-05 03:22:00,77.0,72.0,30.00,West,271,0.0,0.0,85,0.00,,,0.03,,2013-08-05 07:22:00,
2013-08-05 03:32:00,77.0,72.0,29.99,West,271,0.0,0.0,86,0.00,,,0.03,,2013-08-05 07:32:00,
2013-08-05 03:43:00,77.0,72.0,29.98,West,271,0.0,0.0,86,0.00,,,0.03,,2013-08-05 07:43:00,
2013-08-05 03:53:00,77.0,72.0,29.98,West,271,0.0,0.0,86,0.00,,,0.03,,2013-08-05 07:53:00,
2013-08-05 04:02:00,77.0,72.0,29.98,West,271,0.0,0.0,86,0.00,,,0.03,,2013-08-05 08:02:00,
2013-08-05 04:12:00,76.0,72.0,29.98,West,271,0.0,0.0,86,0.00,,,0.03,,2013-08-05 08:12:00,
2013-08-05 04:22:00,76.0,72.0,29.98,West,271,0.0,0.0,86,0.00,,,0.03,,2013-08-05 08:22:00,
2013-08-05 04:34:00,76.0,72.0,29.98,West,271,0.0,0.0,86,0.00,,,0.03,,2013-08-05 08:34:00,
2013-08-05 04:49:00,76.0,71.0,29.98,West,271,0.0,0.0,85,0.00,,,0.03,,2013-08-05 08:49:00,
2013-08-05 05:06:00,76.0,72.0,29.97,West,271,0.0,0.0,86,0.00,,,0.03,,2013-08-05 09:06:00,
2013-08-05 05:19:00,76.0,72.0,29.97,West,271,0.0,0.0,86,0.00,,,0.03,,2013-08-05 09:19:00,
2013-08-05 05:27:00,76.0,72.0,29.97,West,271,0.0,0.0,86,0.00,,,0.03,,2013-08-05 09:27:00,
2013-08-05 05:39:00,76.0,72.0,29.97,West,271,0.0,0.0,86,0.00,,,0.03,,2013-08-05 09:39:00,
2013-08-05 05:48:00,75.0,71.0,29.97,West,271,0.0,0.0,86,0.00,,,0.03,,2013-08-05 09:48:00,
2013-08-05 05:53:00,75.0,71.0,29.97,West,271,0.0,0.0,86,0.00,,,0.03,,2013-08-05 09:53:00,
2013-08-05 06:10:00,75.0,71.0,29.97,West,271,0.0,0.0,86,0.00,,,0.03,,2013-08-05 10:10:00,
2013-08-05 06:15:00,75.0,71.0,29.97,West,271,0.0,0.0,86,0.00,,,0.03,,2013-08-05 10:15:00,
2013-08-05 06:27:00,75.0,71.0,29.97,West,271,0.0,0.0,86,0.00,,,0.03,,2013-08-05 10:27:00,
2013-08-05 06:33:00,75.0,71.0,29.98,West,271,0.0,0.0,86,0.00,,,0.03,,2013-08-05 10:33:00,
2013-08-05 06:47:00,75.0,71.0,29.98,West,271,0.0,0.0,86,0.00,,,0.03,,2013-08-05 10:47:00,
2013-08-05 06:53:00,75.0,71.0,29.98,West,271,0.0,0.0,86,0.00,,,0.03,,2013-08-05 10:53:00,
2013-08-05 07:09:00,75.0,71.0,29.98,West,271,0.0,0.0,86,0.00,,,0.03,,2013-08-05 11:09:00,
2013-08-05 07:29:00,75.0,71.0,29.99,West,271,0.0,0.0,86,0.00,,,0.03,,2013-08-05 11:29:00,
2013-08-05 07:37:00,75.0,71.0,30.00,West,271,0.0,0.0,86,0.00,,,0.03,,2013-08-05 11:37:00,
2013-08-05 07:50:00,76.0,72.0,30.00,West,271,0.0,0.0,86,0.00,,,0.03,,2013-08-05 11:50:00,
2013-08-05 08:08:00,76.0,72.0,30.01,West,271,0.0,0.0,86,0.00,,,0.03,,2013-08-05 12:08:00,
2013-08-05 08:17:00,76.0,72.0,30.01,West,271,0.0,0.0,86,0.00,,,0.03,,2013-08-05 12:17:00,
2013-08-05 08:27:00,77.0,72.0,30.01,West,271,0.0,0.0,86,0.00,,,0.03,,2013-08-05 12:27:00,
2013-08-05 08:33:00,78.0,74.0,30.01,West,271,0.0,0.0,87,0.00,,,0.03,,2013-08-05 12:33:00,
2013-08-05 09:02:00,83.0,78.0,30.01,West,271,0.0,0.0,86,0.00,,,0.03,,2013-08-05 13:02:00,
2013-08-05 09:14:00,84.0,79.0,30.02,West,271,0.0,0.0,84,0.00,,,0.03,,2013-08-05 13:14:00,
2013-08-05 09:27:00,85.0,79.0,30.02,West,271,0.0,0.0,83,0.00,,,0.03,,2013-08-05 13:27:00,
2013-08-05 09:38:00,86.0,80.0,30.02,West,271,0.0,0.0,82,0.00,,,0.03,,2013-08-05 13:38:00,
2013-08-05 09:53:00,88.0,79.0,30.02,WNW,283,0.0,0.0,76,0.00,,,0.03,,2013-08-05 13:53:00,
2013-08-05 10:05:00,88.0,79.0,30.02,NW,321,0.0,0.0,74,0.00,,,0.03,,2013-08-05 14:05:00,
2013-08-05 10:17:00,88.0,79.0,30.02,NW,321,0.0,0.0,74,0.00,,,0.03,,2013-08-05 14:17:00,
2013-08-05 10:38:00,88.0,79.0,30.02,NW,325,0.0,0.0,75,0.00,,,0.02,,2013-08-05 14:38:00,
2013-08-05 10:47:00,87.0,79.0,30.02,NW,325,0.0,0.0,78,0.00,,,0.02,,2013-08-05 14:47:00,
2013-08-05 10:53:00,89.0,80.0,30.02,NW,321,0.0,0.0,74,0.00,,,0.01,,2013-08-05 14:53:00,
2013-08-05 11:08:00,89.0,79.0,30.02,NNW,327,0.0,0.0,73,0.00,,,0.01,,2013-08-05 15:08:00,
2013-08-05 11:37:00,84.0,76.0,30.02,North,349,0.0,0.0,78,0.00,,,0.00,,2013-08-05 15:37:00,
2013-08-05 11:56:00,89.0,80.0,30.02,WSW,248,0.0,0.0,75,0.00,,,0.00,,2013-08-05 15:56:00,
2013-08-05 12:17:00,89.0,80.0,30.02,WSW,248,0.0,0.0,75,0.00,,,0.00,,2013-08-05 16:17:00,
2013-08-05 12:26:00,92.0,79.0,30.02,WNW,288,2.0,5.0,67,0.00,,,0.00,,2013-08-05 16:26:00,
2013-08-05 12:33:00,92.0,80.0,30.01,NNW,327,0.0,6.0,68,0.00,,,0.00,,2013-08-05 16:33:00,
2013-08-05 12:45:00,92.0,80.0,30.01,NNW,327,0.0,6.0,68,0.00,,,0.00,,2013-08-05 16:45:00,
2013-08-05 13:00:00,93.0,80.0,30.01,SSW,200,3.0,8.0,67,0.00,,,0.00,,2013-08-05 17:00:00,
2013-08-05 13:06:00,90.0,78.0,30.01,SW,216,3.0,8.0,69,0.00,,,0.00,,2013-08-05 17:06:00,
2013-08-05 13:17:00,89.0,79.0,30.01,WSW,255,2.0,8.0,73,0.00,,,0.00,,2013-08-05 17:17:00,
2013-08-05 13:22:00,90.0,79.0,30.01,SW,219,5.0,8.0,71,0.00,,,0.00,,2013-08-05 17:22:00,
2013-08-05 13:37:00,90.0,79.0,30.01,SW,219,5.0,8.0,71,0.00,,,0.00,,2013-08-05 17:37:00,
2013-08-05 13:57:00,93.0,79.0,30.00,NW,314,6.0,9.0,65,0.00,,,0.00,,2013-08-05 17:57:00,
2013-08-05 14:08:00,92.0,79.0,29.99,SW,226,3.0,10.0,67,0.00,,,0.00,,2013-08-05 18:08:00,
2013-08-05 14:13:00,93.0,79.0,29.98,SW,217,3.0,10.0,64,0.00,,,0.00,,2013-08-05 18:13:00,
2013-08-05 14:26:00,92.0,79.0,29.98,West,267,3.0,10.0,66,0.00,,,0.00,,2013-08-05 18:26:00,
2013-08-05 14:37:00,93.0,81.0,29.98,NNW,345,2.0,10.0,68,0.00,,,0.00,,2013-08-05 18:37:00,
2013-08-05 14:44:00,93.0,81.0,29.98,NNW,345,2.0,10.0,68,0.00,,,0.00,,2013-08-05 18:44:00,
2013-08-05 14:53:00,93.0,79.0,29.98,WNW,289,3.0,9.0,65,0.00,,,0.00,,2013-08-05 18:53:00,
2013-08-05 15:05:00,92.0,79.0,29.98,NW,307,0.0,9.0,67,0.00,,,0.00,,2013-08-05 19:05:00,
2013-08-05 15:14:00,92.0,79.0,29.98,NW,307,0.0,9.0,67,0.00,,,0.00,,2013-08-05 19:14:00,
2013-08-05 15:26:00,92.0,79.0,29.98,NW,307,0.0,9.0,67,0.00,,,0.00,,2013-08-05 19:26:00,
2013-08-05 15:38:00,88.0,79.0,29.97,WNW,297,0.0,5.0,74,0.00,,,0.00,,2013-08-05 19:38:00,
2013-08-05 15:50:00,87.0,77.0,29.96,NW,306,2.0,6.0,73,0.00,,,0.00,,2013-08-05 19:50:00,
2013-08-05 15:58:00,87.0,77.0,29.96,NW,306,2.0,6.0,73,0.00,,,0.00,,2013-08-05 19:58:00,
2013-08-05 16:09:00,87.0,78.0,29.97,West,273,2.0,3.0,74,0.00,,,0.00,,2013-08-05 20:09:00,
2013-08-05 16:15:00,87.0,78.0,29.97,West,273,1.0,3.0,74,0.00,,,0.00,,2013-08-05 20:15:00,
2013-08-05 16:47:00,88.0,79.0,29.96,West,260,2.0,5.0,75,0.00,,,0.00,,2013-08-05 20:47:00,
2013-08-05 16:56:00,89.0,80.0,29.95,WNW,292,3.0,7.0,74,0.00,,,0.00,,2013-08-05 20:56:00,
2013-08-05 17:07:00,91.0,79.0,29.95,SSW,207,1.0,8.0,69,0.00,,,0.00,,2013-08-05 21:07:00,
2013-08-05 17:19:00,91.0,78.0,29.94,SE,142,0.0,9.0,65,0.00,,,0.00,,2013-08-05 21:19:00,
2013-08-05 17:26:00,90.0,78.0,29.95,West,260,3.0,5.0,68,0.00,,,0.00,,2013-08-05 21:26:00,
2013-08-05 17:34:00,90.0,78.0,29.95,West,260,3.0,5.0,68,0.00,,,0.00,,2013-08-05 21:34:00,
2013-08-05 17:46:00,90.0,78.0,29.95,West,260,3.0,5.0,68,0.00,,,0.00,,2013-08-05 21:46:00,
2013-08-05 17:53:00,90.0,79.0,29.93,West,267,3.0,9.0,71,0.00,,,0.00,,2013-08-05 21:53:00,
2013-08-05 18:05:00,90.0,79.0,29.93,West,267,3.0,9.0,71,0.00,,,0.00,,2013-08-05 22:05:00,
2013-08-05 18:15:00,88.0,79.0,29.94,West,273,1.0,9.0,74,0.00,,,0.00,,2013-08-05 22:15:00,
2013-08-05 18:44:00,86.0,78.0,29.95,West,269,2.0,4.0,77,0.00,,,0.00,,2013-08-05 22:44:00,
2013-08-05 18:53:00,86.0,78.0,29.95,West,269,2.0,4.0,77,0.00,,,0.00,,2013-08-05 22:53:00,
2013-08-05 19:07:00,86.0,78.0,29.96,West,269,1.0,3.0,78,0.00,,,0.00,,2013-08-05 23:07:00,
2013-08-05 19:16:00,85.0,78.0,29.96,West,269,0.0,3.0,79,0.00,,,0.00,,2013-08-05 23:16:00,
2013-08-05 19:26:00,85.0,78.0,29.96,West,269,0.0,0.0,80,0.00,,,0.00,,2013-08-05 23:26:00,
2013-08-05 19:33:00,85.0,78.0,29.96,West,269,0.0,0.0,80,0.00,,,0.00,,2013-08-05 23:33:00,
2013-08-05 19:46:00,85.0,78.0,29.96,West,269,0.0,0.0,80,0.00,,,0.00,,2013-08-05 23:46:00,
2013-08-05 19:57:00,84.0,78.0,29.96,West,269,0.0,0.0,81,0.00,,,0.00,,2013-08-05 23:57:00,
2013-08-05 20:02:00,84.0,78.0,29.96,West,269,0.0,0.0,81,0.00,,,0.00,,2013-08-06 00:02:00,
2013-08-05 20:15:00,84.0,78.0,29.96,West,269,0.0,0.0,81,0.00,,,0.00,,2013-08-06 00:15:00,
2013-08-05 20:24:00,84.0,78.0,29.98,West,269,0.0,1.0,82,0.00,,,0.00,,2013-08-06 00:24:00,
2013-08-05 20:37:00,84.0,78.0,29.98,West,269,0.0,2.0,82,0.00,,,0.00,,2013-08-06 00:37:00,
2013-08-05 20:47:00,84.0,78.0,29.98,West,269,0.0,2.0,82,0.00,,,0.00,,2013-08-06 00:47:00,
2013-08-05 20:57:00,84.0,78.0,29.98,West,269,0.0,2.0,82,0.00,,,0.00,,2013-08-06 00:57:00,
2013-08-05 21:14:00,83.0,77.0,29.98,West,269,0.0,0.0,83,0.00,,,0.00,,2013-08-06 01:14:00,
2013-08-05 21:28:00,83.0,77.0,29.98,West,269,0.0,0.0,83,0.00,,,0.00,,2013-08-06 01:28:00,
2013-08-05 21:49:00,82.0,77.0,29.98,West,269,0.0,0.0,86,0.00,,,0.00,,2013-08-06 01:49:00,
2013-08-05 22:15:00,82.0,77.0,29.97,West,269,0.0,0.0,86,0.00,,,0.00,,2013-08-06 02:15:00,
2013-08-05 22:26:00,82.0,77.0,29.97,West,269,0.0,0.0,86,0.00,,,0.00,,2013-08-06 02:26:00,
2013-08-05 22:53:00,81.0,76.0,29.97,ENE,57,0.0,1.0,86,0.00,,,0.00,,2013-08-06 02:53:00,
2013-08-05 23:02:00,81.0,76.0,29.97,ENE,57,0.0,1.0,86,0.00,,,0.00,,2013-08-06 03:02:00,
2013-08-05 23:45:00,80.0,76.0,29.97,ENE,57,0.0,0.0,87,0.00,,,0.00,,2013-08-06 03:45:00,
2013-08-05 23:52:00,80.0,75.0,29.98,ENE,57,0.0,0.0,86,0.00,,,0.00,,2013-08-06 03:52:00,